sensor_id;sensor_type;location;lat;lon;timestamp;P1;durP1;ratioP1;P2;durP2;ratioP2
20527;SDS011;23612;50.894;10.700;2023-05-07T00:01:05;58.50;;;35.38;;
20527;SDS011;23612;50.894;10.700;2023-05-07T00:03:31;55.03;;;36.75;;
20527;SDS011;23612;50.894;10.700;2023-05-07T00:05:57;57.28;;;35.65;;
20527;SDS011;23612;50.894;10.700;2023-05-07T00:08:23;56.42;;;35.35;;
20527;SDS011;23612;50.894;10.700;2023-05-07T00:10:48;57.30;;;34.95;;
20527;SDS011;23612;50.894;10.700;2023-05-07T00:13:14;58.40;;;34.30;;
20527;SDS011;23612;50.894;10.700;2023-05-07T00:15:39;55.40;;;34.42;;
20527;SDS011;23612;50.894;10.700;2023-05-07T00:18:05;61.53;;;36.65;;
20527;SDS011;23612;50.894;10.700;2023-05-07T00:20:31;56.53;;;35.00;;
20527;SDS011;23612;50.894;10.700;2023-05-07T00:22:56;52.40;;;35.00;;
20527;SDS011;23612;50.894;10.700;2023-05-07T00:25:22;57.65;;;35.42;;
20527;SDS011;23612;50.894;10.700;2023-05-07T00:27:47;58.95;;;35.38;;
20527;SDS011;23612;50.894;10.700;2023-05-07T00:30:13;60.75;;;35.20;;
20527;SDS011;23612;50.894;10.700;2023-05-07T00:32:38;64.35;;;36.88;;
20527;SDS011;23612;50.894;10.700;2023-05-07T00:35:04;62.80;;;36.00;;
20527;SDS011;23612;50.894;10.700;2023-05-07T00:37:30;63.60;;;35.92;;
20527;SDS011;23612;50.894;10.700;2023-05-07T00:39:56;59.50;;;36.58;;
20527;SDS011;23612;50.894;10.700;2023-05-07T00:42:21;60.65;;;37.22;;
20527;SDS011;23612;50.894;10.700;2023-05-07T00:44:47;69.70;;;39.17;;
20527;SDS011;23612;50.894;10.700;2023-05-07T00:47:13;69.18;;;37.63;;
20527;SDS011;23612;50.894;10.700;2023-05-07T00:49:40;65.47;;;38.60;;
20527;SDS011;23612;50.894;10.700;2023-05-07T00:52:07;72.05;;;39.25;;
20527;SDS011;23612;50.894;10.700;2023-05-07T00:54:38;72.43;;;41.22;;
20527;SDS011;23612;50.894;10.700;2023-05-07T00:57:06;67.32;;;40.47;;
20527;SDS011;23612;50.894;10.700;2023-05-07T00:59:32;71.85;;;40.55;;
20527;SDS011;23612;50.894;10.700;2023-05-07T01:01:58;71.43;;;41.28;;
20527;SDS011;23612;50.894;10.700;2023-05-07T01:04:24;75.05;;;41.88;;
20527;SDS011;23612;50.894;10.700;2023-05-07T01:06:49;76.80;;;42.35;;
20527;SDS011;23612;50.894;10.700;2023-05-07T01:09:16;77.22;;;43.53;;
20527;SDS011;23612;50.894;10.700;2023-05-07T01:11:42;79.30;;;45.60;;
20527;SDS011;23612;50.894;10.700;2023-05-07T01:14:08;75.38;;;43.70;;
20527;SDS011;23612;50.894;10.700;2023-05-07T01:16:34;73.72;;;42.20;;
20527;SDS011;23612;50.894;10.700;2023-05-07T01:19:01;85.13;;;45.65;;
20527;SDS011;23612;50.894;10.700;2023-05-07T01:21:26;88.60;;;45.70;;
20527;SDS011;23612;50.894;10.700;2023-05-07T01:23:57;83.85;;;46.03;;
20527;SDS011;23612;50.894;10.700;2023-05-07T01:26:23;82.97;;;45.05;;
20527;SDS011;23612;50.894;10.700;2023-05-07T01:28:48;86.18;;;45.92;;
20527;SDS011;23612;50.894;10.700;2023-05-07T01:31:14;92.28;;;47.03;;
20527;SDS011;23612;50.894;10.700;2023-05-07T01:33:41;96.93;;;47.53;;
20527;SDS011;23612;50.894;10.700;2023-05-07T01:36:09;91.72;;;47.17;;
20527;SDS011;23612;50.894;10.700;2023-05-07T01:38:36;95.97;;;47.70;;
20527;SDS011;23612;50.894;10.700;2023-05-07T01:41:03;93.30;;;47.17;;
20527;SDS011;23612;50.894;10.700;2023-05-07T01:43:29;94.25;;;49.10;;
20527;SDS011;23612;50.894;10.700;2023-05-07T01:45:55;100.43;;;47.38;;
20527;SDS011;23612;50.894;10.700;2023-05-07T01:48:24;91.30;;;45.58;;
20527;SDS011;23612;50.894;10.700;2023-05-07T01:50:50;92.55;;;47.33;;
20527;SDS011;23612;50.894;10.700;2023-05-07T01:53:16;95.40;;;47.95;;
20527;SDS011;23612;50.894;10.700;2023-05-07T01:55:41;92.50;;;46.67;;
20527;SDS011;23612;50.894;10.700;2023-05-07T01:58:07;100.90;;;48.88;;
20527;SDS011;23612;50.894;10.700;2023-05-07T02:00:32;100.07;;;48.58;;
20527;SDS011;23612;50.894;10.700;2023-05-07T02:02:58;95.00;;;47.00;;
20527;SDS011;23612;50.894;10.700;2023-05-07T02:05:24;102.13;;;48.67;;
20527;SDS011;23612;50.894;10.700;2023-05-07T02:07:49;92.75;;;47.15;;
20527;SDS011;23612;50.894;10.700;2023-05-07T02:10:15;94.20;;;45.50;;
20527;SDS011;23612;50.894;10.700;2023-05-07T02:12:40;94.18;;;47.13;;
20527;SDS011;23612;50.894;10.700;2023-05-07T02:15:06;87.20;;;44.90;;
20527;SDS011;23612;50.894;10.700;2023-05-07T02:17:31;94.38;;;46.90;;
20527;SDS011;23612;50.894;10.700;2023-05-07T02:19:58;96.07;;;44.80;;
20527;SDS011;23612;50.894;10.700;2023-05-07T02:22:23;88.07;;;45.17;;
20527;SDS011;23612;50.894;10.700;2023-05-07T02:24:49;89.25;;;46.40;;
20527;SDS011;23612;50.894;10.700;2023-05-07T02:27:14;89.05;;;43.47;;
20527;SDS011;23612;50.894;10.700;2023-05-07T02:29:40;87.85;;;43.97;;
20527;SDS011;23612;50.894;10.700;2023-05-07T02:32:05;90.25;;;43.65;;
20527;SDS011;23612;50.894;10.700;2023-05-07T02:34:31;86.00;;;43.72;;
20527;SDS011;23612;50.894;10.700;2023-05-07T02:36:56;87.50;;;43.45;;
20527;SDS011;23612;50.894;10.700;2023-05-07T02:39:22;92.57;;;44.13;;
20527;SDS011;23612;50.894;10.700;2023-05-07T02:41:47;87.63;;;42.60;;
20527;SDS011;23612;50.894;10.700;2023-05-07T02:44:13;87.60;;;42.80;;
20527;SDS011;23612;50.894;10.700;2023-05-07T02:46:38;87.97;;;42.83;;
20527;SDS011;23612;50.894;10.700;2023-05-07T02:49:04;90.38;;;42.67;;
20527;SDS011;23612;50.894;10.700;2023-05-07T02:51:29;92.65;;;42.58;;
20527;SDS011;23612;50.894;10.700;2023-05-07T02:53:55;88.80;;;43.78;;
20527;SDS011;23612;50.894;10.700;2023-05-07T02:56:21;94.32;;;43.15;;
20527;SDS011;23612;50.894;10.700;2023-05-07T02:58:47;92.28;;;42.97;;
20527;SDS011;23612;50.894;10.700;2023-05-07T03:01:12;95.25;;;42.35;;
20527;SDS011;23612;50.894;10.700;2023-05-07T03:03:38;87.03;;;42.05;;
20527;SDS011;23612;50.894;10.700;2023-05-07T03:06:05;88.50;;;42.08;;
20527;SDS011;23612;50.894;10.700;2023-05-07T03:08:31;92.63;;;43.50;;
20527;SDS011;23612;50.894;10.700;2023-05-07T03:10:57;98.20;;;42.70;;
20527;SDS011;23612;50.894;10.700;2023-05-07T03:13:23;92.80;;;43.63;;
20527;SDS011;23612;50.894;10.700;2023-05-07T03:15:48;99.70;;;44.30;;
20527;SDS011;23612;50.894;10.700;2023-05-07T03:18:14;93.20;;;43.03;;
20527;SDS011;23612;50.894;10.700;2023-05-07T03:20:39;96.82;;;43.28;;
20527;SDS011;23612;50.894;10.700;2023-05-07T03:23:05;92.50;;;42.28;;
20527;SDS011;23612;50.894;10.700;2023-05-07T03:25:31;94.72;;;41.65;;
20527;SDS011;23612;50.894;10.700;2023-05-07T03:27:57;91.93;;;42.40;;
20527;SDS011;23612;50.894;10.700;2023-05-07T03:30:22;96.10;;;42.35;;
20527;SDS011;23612;50.894;10.700;2023-05-07T03:32:48;90.60;;;42.40;;
20527;SDS011;23612;50.894;10.700;2023-05-07T03:35:14;94.20;;;42.75;;
20527;SDS011;23612;50.894;10.700;2023-05-07T03:37:39;100.97;;;43.05;;
20527;SDS011;23612;50.894;10.700;2023-05-07T03:40:05;98.20;;;43.60;;
20527;SDS011;23612;50.894;10.700;2023-05-07T03:42:31;98.93;;;43.00;;
20527;SDS011;23612;50.894;10.700;2023-05-07T03:44:56;103.70;;;44.47;;
20527;SDS011;23612;50.894;10.700;2023-05-07T03:47:22;94.00;;;43.35;;
20527;SDS011;23612;50.894;10.700;2023-05-07T03:49:47;103.45;;;44.45;;
20527;SDS011;23612;50.894;10.700;2023-05-07T03:52:14;93.45;;;42.72;;
20527;SDS011;23612;50.894;10.700;2023-05-07T03:54:40;94.32;;;43.70;;
20527;SDS011;23612;50.894;10.700;2023-05-07T03:57:05;96.85;;;42.95;;
20527;SDS011;23612;50.894;10.700;2023-05-07T03:59:31;97.95;;;43.38;;
20527;SDS011;23612;50.894;10.700;2023-05-07T04:01:56;88.60;;;40.50;;
20527;SDS011;23612;50.894;10.700;2023-05-07T04:04:22;83.55;;;40.60;;
20527;SDS011;23612;50.894;10.700;2023-05-07T04:06:47;88.32;;;42.50;;
20527;SDS011;23612;50.894;10.700;2023-05-07T04:09:13;86.30;;;40.35;;
20527;SDS011;23612;50.894;10.700;2023-05-07T04:11:38;80.32;;;39.95;;
20527;SDS011;23612;50.894;10.700;2023-05-07T04:14:05;84.10;;;40.85;;
20527;SDS011;23612;50.894;10.700;2023-05-07T04:16:31;91.13;;;42.15;;
20527;SDS011;23612;50.894;10.700;2023-05-07T04:18:56;82.28;;;39.15;;
20527;SDS011;23612;50.894;10.700;2023-05-07T04:21:21;84.68;;;41.08;;
20527;SDS011;23612;50.894;10.700;2023-05-07T04:23:47;79.85;;;41.50;;
20527;SDS011;23612;50.894;10.700;2023-05-07T04:26:13;86.85;;;39.90;;
20527;SDS011;23612;50.894;10.700;2023-05-07T04:28:39;85.38;;;40.50;;
20527;SDS011;23612;50.894;10.700;2023-05-07T04:31:05;82.63;;;39.35;;
20527;SDS011;23612;50.894;10.700;2023-05-07T04:33:31;79.93;;;38.85;;
20527;SDS011;23612;50.894;10.700;2023-05-07T04:35:58;85.30;;;40.38;;
20527;SDS011;23612;50.894;10.700;2023-05-07T04:38:28;80.65;;;38.70;;
20527;SDS011;23612;50.894;10.700;2023-05-07T04:40:55;85.18;;;39.05;;
20527;SDS011;23612;50.894;10.700;2023-05-07T04:43:20;82.38;;;39.75;;
20527;SDS011;23612;50.894;10.700;2023-05-07T04:45:46;82.68;;;39.65;;
20527;SDS011;23612;50.894;10.700;2023-05-07T04:48:12;79.80;;;39.42;;
20527;SDS011;23612;50.894;10.700;2023-05-07T04:50:39;73.40;;;37.33;;
20527;SDS011;23612;50.894;10.700;2023-05-07T04:53:05;73.45;;;38.05;;
20527;SDS011;23612;50.894;10.700;2023-05-07T04:55:31;77.15;;;38.10;;
20527;SDS011;23612;50.894;10.700;2023-05-07T04:57:56;88.20;;;39.65;;
20527;SDS011;23612;50.894;10.700;2023-05-07T05:00:22;74.03;;;36.97;;
20527;SDS011;23612;50.894;10.700;2023-05-07T05:02:47;78.85;;;37.25;;
20527;SDS011;23612;50.894;10.700;2023-05-07T05:05:13;77.95;;;36.40;;
20527;SDS011;23612;50.894;10.700;2023-05-07T05:07:38;79.43;;;37.15;;
20527;SDS011;23612;50.894;10.700;2023-05-07T05:10:04;79.63;;;37.75;;
20527;SDS011;23612;50.894;10.700;2023-05-07T05:12:30;76.45;;;38.13;;
20527;SDS011;23612;50.894;10.700;2023-05-07T05:14:56;73.18;;;36.75;;
20527;SDS011;23612;50.894;10.700;2023-05-07T05:17:21;75.65;;;37.85;;
20527;SDS011;23612;50.894;10.700;2023-05-07T05:19:47;78.90;;;36.95;;
20527;SDS011;23612;50.894;10.700;2023-05-07T05:22:12;72.78;;;34.55;;
20527;SDS011;23612;50.894;10.700;2023-05-07T05:24:38;74.38;;;36.55;;
20527;SDS011;23612;50.894;10.700;2023-05-07T05:27:03;75.90;;;34.88;;
20527;SDS011;23612;50.894;10.700;2023-05-07T05:29:29;82.93;;;36.35;;
20527;SDS011;23612;50.894;10.700;2023-05-07T05:31:56;77.68;;;37.35;;
20527;SDS011;23612;50.894;10.700;2023-05-07T05:34:22;82.15;;;37.13;;
20527;SDS011;23612;50.894;10.700;2023-05-07T05:36:47;75.43;;;36.70;;
20527;SDS011;23612;50.894;10.700;2023-05-07T05:39:13;74.18;;;36.05;;
20527;SDS011;23612;50.894;10.700;2023-05-07T05:41:39;68.72;;;35.15;;
20527;SDS011;23612;50.894;10.700;2023-05-07T05:44:04;70.05;;;35.33;;
20527;SDS011;23612;50.894;10.700;2023-05-07T05:46:30;67.15;;;34.58;;
20527;SDS011;23612;50.894;10.700;2023-05-07T05:48:56;66.53;;;33.75;;
20527;SDS011;23612;50.894;10.700;2023-05-07T05:51:21;66.63;;;33.60;;
20527;SDS011;23612;50.894;10.700;2023-05-07T05:53:48;63.38;;;32.33;;
20527;SDS011;23612;50.894;10.700;2023-05-07T05:56:13;67.65;;;32.63;;
20527;SDS011;23612;50.894;10.700;2023-05-07T05:58:40;64.28;;;32.05;;
20527;SDS011;23612;50.894;10.700;2023-05-07T06:01:06;68.95;;;34.33;;
20527;SDS011;23612;50.894;10.700;2023-05-07T06:03:31;62.40;;;31.65;;
20527;SDS011;23612;50.894;10.700;2023-05-07T06:06:00;62.67;;;32.85;;
20527;SDS011;23612;50.894;10.700;2023-05-07T06:08:25;57.83;;;30.00;;
20527;SDS011;23612;50.894;10.700;2023-05-07T06:10:54;55.42;;;29.65;;
20527;SDS011;23612;50.894;10.700;2023-05-07T06:13:19;50.50;;;28.40;;
20527;SDS011;23612;50.894;10.700;2023-05-07T06:15:45;54.63;;;28.88;;
20527;SDS011;23612;50.894;10.700;2023-05-07T06:18:10;49.28;;;26.83;;
20527;SDS011;23612;50.894;10.700;2023-05-07T06:20:36;52.35;;;26.85;;
20527;SDS011;23612;50.894;10.700;2023-05-07T06:23:01;49.35;;;27.73;;
20527;SDS011;23612;50.894;10.700;2023-05-07T06:25:27;46.92;;;25.80;;
20527;SDS011;23612;50.894;10.700;2023-05-07T06:27:52;42.03;;;25.13;;
20527;SDS011;23612;50.894;10.700;2023-05-07T06:30:19;45.05;;;24.90;;
20527;SDS011;23612;50.894;10.700;2023-05-07T06:32:44;42.70;;;25.25;;
20527;SDS011;23612;50.894;10.700;2023-05-07T06:35:10;42.05;;;24.17;;
20527;SDS011;23612;50.894;10.700;2023-05-07T06:37:35;35.78;;;22.30;;
20527;SDS011;23612;50.894;10.700;2023-05-07T06:40:03;38.25;;;23.20;;
20527;SDS011;23612;50.894;10.700;2023-05-07T06:42:30;39.30;;;23.35;;
20527;SDS011;23612;50.894;10.700;2023-05-07T06:44:55;35.15;;;21.67;;
20527;SDS011;23612;50.894;10.700;2023-05-07T06:47:20;36.03;;;20.73;;
20527;SDS011;23612;50.894;10.700;2023-05-07T06:49:46;31.27;;;20.58;;
20527;SDS011;23612;50.894;10.700;2023-05-07T06:52:11;33.55;;;20.35;;
20527;SDS011;23612;50.894;10.700;2023-05-07T06:54:37;33.50;;;20.10;;
20527;SDS011;23612;50.894;10.700;2023-05-07T06:57:02;34.20;;;21.17;;
20527;SDS011;23612;50.894;10.700;2023-05-07T06:59:28;35.88;;;22.60;;
20527;SDS011;23612;50.894;10.700;2023-05-07T07:01:53;38.80;;;22.55;;
20527;SDS011;23612;50.894;10.700;2023-05-07T07:04:19;36.15;;;22.83;;
20527;SDS011;23612;50.894;10.700;2023-05-07T07:06:47;38.10;;;22.08;;
20527;SDS011;23612;50.894;10.700;2023-05-07T07:09:12;36.50;;;22.35;;
20527;SDS011;23612;50.894;10.700;2023-05-07T07:11:38;36.85;;;23.52;;
20527;SDS011;23612;50.894;10.700;2023-05-07T07:14:03;40.88;;;24.02;;
20527;SDS011;23612;50.894;10.700;2023-05-07T07:16:30;47.88;;;28.13;;
20527;SDS011;23612;50.894;10.700;2023-05-07T07:18:55;39.75;;;23.27;;
20527;SDS011;23612;50.894;10.700;2023-05-07T07:21:21;65.00;;;43.08;;
20527;SDS011;23612;50.894;10.700;2023-05-07T07:23:46;44.33;;;28.92;;
20527;SDS011;23612;50.894;10.700;2023-05-07T07:26:12;40.03;;;25.13;;
20527;SDS011;23612;50.894;10.700;2023-05-07T07:28:44;37.50;;;23.75;;
20527;SDS011;23612;50.894;10.700;2023-05-07T07:31:10;37.25;;;23.67;;
20527;SDS011;23612;50.894;10.700;2023-05-07T07:33:36;39.13;;;23.65;;
20527;SDS011;23612;50.894;10.700;2023-05-07T07:36:01;40.40;;;24.90;;
20527;SDS011;23612;50.894;10.700;2023-05-07T07:38:27;40.60;;;24.63;;
20527;SDS011;23612;50.894;10.700;2023-05-07T07:40:53;42.35;;;24.67;;
20527;SDS011;23612;50.894;10.700;2023-05-07T07:43:18;37.33;;;22.83;;
20527;SDS011;23612;50.894;10.700;2023-05-07T07:45:43;38.72;;;22.33;;
20527;SDS011;23612;50.894;10.700;2023-05-07T07:48:10;38.17;;;24.38;;
20527;SDS011;23612;50.894;10.700;2023-05-07T07:50:36;40.53;;;22.45;;
20527;SDS011;23612;50.894;10.700;2023-05-07T07:53:02;36.53;;;22.75;;
20527;SDS011;23612;50.894;10.700;2023-05-07T07:55:27;35.80;;;21.67;;
20527;SDS011;23612;50.894;10.700;2023-05-07T07:57:53;36.47;;;21.90;;
20527;SDS011;23612;50.894;10.700;2023-05-07T08:00:18;35.30;;;21.33;;
20527;SDS011;23612;50.894;10.700;2023-05-07T08:02:44;35.70;;;20.65;;
20527;SDS011;23612;50.894;10.700;2023-05-07T08:05:09;32.50;;;20.65;;
20527;SDS011;23612;50.894;10.700;2023-05-07T08:07:35;37.38;;;20.92;;
20527;SDS011;23612;50.894;10.700;2023-05-07T08:10:01;31.58;;;21.02;;
20527;SDS011;23612;50.894;10.700;2023-05-07T08:12:27;31.65;;;19.85;;
20527;SDS011;23612;50.894;10.700;2023-05-07T08:14:52;30.40;;;19.10;;
20527;SDS011;23612;50.894;10.700;2023-05-07T08:17:18;37.00;;;20.23;;
20527;SDS011;23612;50.894;10.700;2023-05-07T08:19:43;32.17;;;19.83;;
20527;SDS011;23612;50.894;10.700;2023-05-07T08:22:09;31.17;;;19.73;;
20527;SDS011;23612;50.894;10.700;2023-05-07T08:24:35;32.30;;;19.13;;
20527;SDS011;23612;50.894;10.700;2023-05-07T08:27:01;34.00;;;20.75;;
20527;SDS011;23612;50.894;10.700;2023-05-07T08:29:27;32.95;;;19.13;;
20527;SDS011;23612;50.894;10.700;2023-05-07T08:31:52;35.33;;;19.95;;
20527;SDS011;23612;50.894;10.700;2023-05-07T08:34:18;28.67;;;18.40;;
20527;SDS011;23612;50.894;10.700;2023-05-07T08:36:44;29.58;;;17.48;;
20527;SDS011;23612;50.894;10.700;2023-05-07T08:39:11;30.38;;;19.77;;
20527;SDS011;23612;50.894;10.700;2023-05-07T08:41:37;29.85;;;18.90;;
20527;SDS011;23612;50.894;10.700;2023-05-07T08:44:03;34.47;;;20.60;;
20527;SDS011;23612;50.894;10.700;2023-05-07T08:46:36;32.03;;;18.98;;
20527;SDS011;23612;50.894;10.700;2023-05-07T08:49:01;32.78;;;20.65;;
20527;SDS011;23612;50.894;10.700;2023-05-07T08:51:27;34.85;;;19.45;;
20527;SDS011;23612;50.894;10.700;2023-05-07T08:53:53;29.52;;;17.88;;
20527;SDS011;23612;50.894;10.700;2023-05-07T08:56:18;29.90;;;18.05;;
20527;SDS011;23612;50.894;10.700;2023-05-07T08:58:45;26.63;;;17.77;;
20527;SDS011;23612;50.894;10.700;2023-05-07T09:01:14;29.30;;;17.90;;
20527;SDS011;23612;50.894;10.700;2023-05-07T09:03:42;32.60;;;19.25;;
20527;SDS011;23612;50.894;10.700;2023-05-07T09:06:09;29.13;;;18.23;;
20527;SDS011;23612;50.894;10.700;2023-05-07T09:08:35;29.10;;;17.65;;
20527;SDS011;23612;50.894;10.700;2023-05-07T09:11:01;29.52;;;19.00;;
20527;SDS011;23612;50.894;10.700;2023-05-07T09:13:27;30.05;;;17.75;;
20527;SDS011;23612;50.894;10.700;2023-05-07T09:15:53;33.58;;;19.13;;
20527;SDS011;23612;50.894;10.700;2023-05-07T09:18:18;33.70;;;19.58;;
20527;SDS011;23612;50.894;10.700;2023-05-07T09:20:44;28.17;;;18.73;;
20527;SDS011;23612;50.894;10.700;2023-05-07T09:23:09;25.45;;;17.52;;
20527;SDS011;23612;50.894;10.700;2023-05-07T09:25:35;26.73;;;17.65;;
20527;SDS011;23612;50.894;10.700;2023-05-07T09:28:02;33.25;;;19.33;;
20527;SDS011;23612;50.894;10.700;2023-05-07T09:30:31;30.33;;;18.23;;
20527;SDS011;23612;50.894;10.700;2023-05-07T09:32:57;32.45;;;19.58;;
20527;SDS011;23612;50.894;10.700;2023-05-07T09:35:24;26.85;;;17.45;;
20527;SDS011;23612;50.894;10.700;2023-05-07T09:37:52;28.20;;;18.15;;
20527;SDS011;23612;50.894;10.700;2023-05-07T09:40:23;27.48;;;18.30;;
20527;SDS011;23612;50.894;10.700;2023-05-07T09:42:50;28.55;;;17.67;;
20527;SDS011;23612;50.894;10.700;2023-05-07T09:45:16;28.42;;;17.65;;
20527;SDS011;23612;50.894;10.700;2023-05-07T09:47:56;27.60;;;18.25;;
20527;SDS011;23612;50.894;10.700;2023-05-07T09:50:26;28.20;;;18.60;;
20527;SDS011;23612;50.894;10.700;2023-05-07T09:52:55;29.38;;;18.65;;
20527;SDS011;23612;50.894;10.700;2023-05-07T09:55:21;31.00;;;18.58;;
20527;SDS011;23612;50.894;10.700;2023-05-07T09:57:51;31.08;;;18.38;;
20527;SDS011;23612;50.894;10.700;2023-05-07T10:00:20;29.38;;;18.17;;
20527;SDS011;23612;50.894;10.700;2023-05-07T10:02:51;29.65;;;18.85;;
20527;SDS011;23612;50.894;10.700;2023-05-07T10:05:20;29.65;;;18.63;;
20527;SDS011;23612;50.894;10.700;2023-05-07T10:07:47;27.95;;;19.10;;
20527;SDS011;23612;50.894;10.700;2023-05-07T10:10:14;29.17;;;18.58;;
20527;SDS011;23612;50.894;10.700;2023-05-07T10:12:42;34.75;;;18.85;;
20527;SDS011;23612;50.894;10.700;2023-05-07T10:15:09;34.22;;;20.67;;
20527;SDS011;23612;50.894;10.700;2023-05-07T10:17:38;33.20;;;21.40;;
20527;SDS011;23612;50.894;10.700;2023-05-07T10:20:05;30.77;;;19.85;;
20527;SDS011;23612;50.894;10.700;2023-05-07T10:22:32;26.38;;;18.73;;
20527;SDS011;23612;50.894;10.700;2023-05-07T10:25:03;28.30;;;18.50;;
20527;SDS011;23612;50.894;10.700;2023-05-07T10:27:33;27.60;;;18.85;;
20527;SDS011;23612;50.894;10.700;2023-05-07T10:30:07;27.05;;;19.00;;
20527;SDS011;23612;50.894;10.700;2023-05-07T10:32:51;31.80;;;19.90;;
20527;SDS011;23612;50.894;10.700;2023-05-07T10:35:30;31.73;;;20.25;;
20527;SDS011;23612;50.894;10.700;2023-05-07T10:38:00;31.08;;;19.60;;
20527;SDS011;23612;50.894;10.700;2023-05-07T10:40:26;29.67;;;19.25;;
20527;SDS011;23612;50.894;10.700;2023-05-07T10:45:22;30.17;;;19.50;;
20527;SDS011;23612;50.894;10.700;2023-05-07T10:48:06;30.45;;;19.30;;
20527;SDS011;23612;50.894;10.700;2023-05-07T10:50:33;28.73;;;18.95;;
20527;SDS011;23612;50.894;10.700;2023-05-07T10:55:43;32.45;;;20.23;;
20527;SDS011;23612;50.894;10.700;2023-05-07T10:58:26;26.38;;;18.52;;
20527;SDS011;23612;50.894;10.700;2023-05-07T11:00:59;29.38;;;19.10;;
20527;SDS011;23612;50.894;10.700;2023-05-07T11:03:26;27.13;;;17.92;;
20527;SDS011;23612;50.894;10.700;2023-05-07T11:11:19;23.33;;;17.00;;
20527;SDS011;23612;50.894;10.700;2023-05-07T11:14:05;26.00;;;16.73;;
20527;SDS011;23612;50.894;10.700;2023-05-07T11:16:30;23.35;;;17.65;;
20527;SDS011;23612;50.894;10.700;2023-05-07T11:18:58;26.58;;;18.15;;
20527;SDS011;23612;50.894;10.700;2023-05-07T11:21:37;21.50;;;16.02;;
20527;SDS011;23612;50.894;10.700;2023-05-07T11:24:10;24.48;;;17.00;;
20527;SDS011;23612;50.894;10.700;2023-05-07T11:26:42;23.15;;;17.20;;
20527;SDS011;23612;50.894;10.700;2023-05-07T11:29:13;20.77;;;15.70;;
20527;SDS011;23612;50.894;10.700;2023-05-07T11:31:43;23.00;;;16.83;;
20527;SDS011;23612;50.894;10.700;2023-05-07T11:34:09;22.98;;;16.98;;
20527;SDS011;23612;50.894;10.700;2023-05-07T11:36:35;24.80;;;17.13;;
20527;SDS011;23612;50.894;10.700;2023-05-07T11:39:27;22.75;;;16.77;;
20527;SDS011;23612;50.894;10.700;2023-05-07T11:41:58;23.45;;;17.10;;
20527;SDS011;23612;50.894;10.700;2023-05-07T11:44:25;24.55;;;16.80;;
20527;SDS011;23612;50.894;10.700;2023-05-07T11:46:50;23.67;;;16.85;;
20527;SDS011;23612;50.894;10.700;2023-05-07T11:49:16;24.67;;;17.15;;
20527;SDS011;23612;50.894;10.700;2023-05-07T11:51:43;24.90;;;17.73;;
20527;SDS011;23612;50.894;10.700;2023-05-07T11:54:09;21.70;;;16.55;;
20527;SDS011;23612;50.894;10.700;2023-05-07T11:56:36;23.23;;;16.98;;
20527;SDS011;23612;50.894;10.700;2023-05-07T11:59:02;21.27;;;16.48;;
20527;SDS011;23612;50.894;10.700;2023-05-07T12:01:27;21.10;;;16.17;;
20527;SDS011;23612;50.894;10.700;2023-05-07T12:03:53;21.23;;;16.40;;
20527;SDS011;23612;50.894;10.700;2023-05-07T12:06:18;21.05;;;16.10;;
20527;SDS011;23612;50.894;10.700;2023-05-07T12:08:44;22.02;;;16.23;;
20527;SDS011;23612;50.894;10.700;2023-05-07T12:11:23;21.05;;;16.33;;
20527;SDS011;23612;50.894;10.700;2023-05-07T12:13:50;22.13;;;16.83;;
20527;SDS011;23612;50.894;10.700;2023-05-07T12:16:16;19.55;;;15.93;;
20527;SDS011;23612;50.894;10.700;2023-05-07T12:18:42;19.48;;;15.55;;
20527;SDS011;23612;50.894;10.700;2023-05-07T12:21:09;23.52;;;16.08;;
20527;SDS011;23612;50.894;10.700;2023-05-07T12:23:35;22.67;;;15.95;;
20527;SDS011;23612;50.894;10.700;2023-05-07T12:26:01;20.02;;;15.27;;
20527;SDS011;23612;50.894;10.700;2023-05-07T12:28:27;19.88;;;15.38;;
20527;SDS011;23612;50.894;10.700;2023-05-07T12:30:53;19.70;;;16.00;;
20527;SDS011;23612;50.894;10.700;2023-05-07T12:33:19;22.55;;;17.27;;
20527;SDS011;23612;50.894;10.700;2023-05-07T12:35:49;21.33;;;16.27;;
20527;SDS011;23612;50.894;10.700;2023-05-07T12:38:15;20.45;;;16.52;;
20527;SDS011;23612;50.894;10.700;2023-05-07T12:40:45;18.95;;;16.08;;
20527;SDS011;23612;50.894;10.700;2023-05-07T12:45:48;18.05;;;14.82;;
20527;SDS011;23612;50.894;10.700;2023-05-07T12:48:15;20.75;;;15.38;;
20527;SDS011;23612;50.894;10.700;2023-05-07T12:50:40;21.08;;;15.75;;
20527;SDS011;23612;50.894;10.700;2023-05-07T12:53:07;18.52;;;14.95;;
20527;SDS011;23612;50.894;10.700;2023-05-07T12:55:41;16.70;;;14.23;;
20527;SDS011;23612;50.894;10.700;2023-05-07T12:58:08;18.27;;;15.23;;
20527;SDS011;23612;50.894;10.700;2023-05-07T13:00:38;19.52;;;16.20;;
20527;SDS011;23612;50.894;10.700;2023-05-07T13:03:04;18.75;;;15.30;;
20527;SDS011;23612;50.894;10.700;2023-05-07T13:05:30;20.40;;;14.82;;
20527;SDS011;23612;50.894;10.700;2023-05-07T13:07:56;19.25;;;15.35;;
20527;SDS011;23612;50.894;10.700;2023-05-07T13:10:22;18.50;;;15.93;;
20527;SDS011;23612;50.894;10.700;2023-05-07T13:12:49;20.42;;;16.05;;
20527;SDS011;23612;50.894;10.700;2023-05-07T13:15:15;19.52;;;15.05;;
20527;SDS011;23612;50.894;10.700;2023-05-07T13:17:41;20.40;;;15.35;;
20527;SDS011;23612;50.894;10.700;2023-05-07T13:20:08;20.08;;;15.10;;
20527;SDS011;23612;50.894;10.700;2023-05-07T13:22:34;18.50;;;14.88;;
20527;SDS011;23612;50.894;10.700;2023-05-07T13:24:59;20.23;;;15.25;;
20527;SDS011;23612;50.894;10.700;2023-05-07T13:27:25;17.42;;;15.05;;
20527;SDS011;23612;50.894;10.700;2023-05-07T13:29:51;20.40;;;15.50;;
20527;SDS011;23612;50.894;10.700;2023-05-07T13:32:16;18.65;;;13.65;;
20527;SDS011;23612;50.894;10.700;2023-05-07T13:34:42;18.20;;;14.32;;
20527;SDS011;23612;50.894;10.700;2023-05-07T13:37:07;17.33;;;14.30;;
20527;SDS011;23612;50.894;10.700;2023-05-07T13:39:33;17.15;;;14.07;;
20527;SDS011;23612;50.894;10.700;2023-05-07T13:41:58;22.08;;;14.68;;
20527;SDS011;23612;50.894;10.700;2023-05-07T13:44:24;16.77;;;13.77;;
20527;SDS011;23612;50.894;10.700;2023-05-07T13:46:49;15.95;;;12.95;;
20527;SDS011;23612;50.894;10.700;2023-05-07T13:49:16;16.60;;;14.52;;
20527;SDS011;23612;50.894;10.700;2023-05-07T13:51:41;17.58;;;14.27;;
20527;SDS011;23612;50.894;10.700;2023-05-07T13:54:07;17.75;;;14.65;;
20527;SDS011;23612;50.894;10.700;2023-05-07T13:56:32;16.20;;;13.55;;
20527;SDS011;23612;50.894;10.700;2023-05-07T13:58:58;15.48;;;12.88;;
20527;SDS011;23612;50.894;10.700;2023-05-07T14:01:23;16.42;;;13.38;;
20527;SDS011;23612;50.894;10.700;2023-05-07T14:03:49;16.65;;;12.63;;
20527;SDS011;23612;50.894;10.700;2023-05-07T14:06:14;16.15;;;13.80;;
20527;SDS011;23612;50.894;10.700;2023-05-07T14:08:40;19.45;;;14.82;;
20527;SDS011;23612;50.894;10.700;2023-05-07T14:11:05;19.20;;;14.48;;
20527;SDS011;23612;50.894;10.700;2023-05-07T14:13:31;14.68;;;12.80;;
20527;SDS011;23612;50.894;10.700;2023-05-07T14:15:57;15.68;;;12.90;;
20527;SDS011;23612;50.894;10.700;2023-05-07T14:18:23;15.30;;;12.02;;